createdAt,value
2023-05-03T00:01:44.750Z,15.57
2023-05-03T00:04:11.958Z,14.45
2023-05-03T00:06:39.276Z,13.40
2023-05-03T00:09:06.318Z,15.20
2023-05-03T00:11:34.414Z,12.77
2023-05-03T00:14:01.859Z,14.27
2023-05-03T00:16:29.054Z,13.05
2023-05-03T00:18:56.087Z,11.75
2023-05-03T00:21:23.593Z,10.05
2023-05-03T00:23:50.709Z,15.27
2023-05-03T00:26:17.725Z,10.45
2023-05-03T00:28:45.529Z,11.88
2023-05-03T00:31:12.737Z,18.08
2023-05-03T00:33:40.865Z,15.23
2023-05-03T00:36:15.663Z,11.15
2023-05-03T00:38:43.261Z,5.68
2023-05-03T00:41:11.172Z,8.55
2023-05-03T00:43:38.594Z,9.45
2023-05-03T00:46:16.731Z,11.77
2023-05-03T00:48:45.541Z,9.93
2023-05-03T00:51:14.884Z,8.25
2023-05-03T00:53:43.663Z,12.73
2023-05-03T00:56:12.188Z,7.72
2023-05-03T00:58:40.733Z,7.75
2023-05-03T01:01:09.068Z,7.45
2023-05-03T01:03:41.416Z,8.07
2023-05-03T01:06:25.193Z,8.02
2023-05-03T01:09:12.869Z,8.57
2023-05-03T01:12:04.884Z,9.05
2023-05-03T01:14:40.923Z,8.60
2023-05-03T01:17:20.067Z,12.05
2023-05-03T01:19:54.275Z,7.75
2023-05-03T01:22:36.687Z,10.50
2023-05-03T01:25:11.396Z,10.55
2023-05-03T01:27:39.794Z,7.43
2023-05-03T01:30:08.907Z,6.60
2023-05-03T01:33:04.909Z,9.65
2023-05-03T01:35:50.819Z,7.82
2023-05-03T01:38:18.995Z,9.15
2023-05-03T01:40:53.128Z,8.57
2023-05-03T01:43:23.366Z,8.50
2023-05-03T01:45:50.828Z,7.03
2023-05-03T01:48:19.685Z,8.10
2023-05-03T01:50:47.062Z,7.10
2023-05-03T01:53:14.413Z,9.73
2023-05-03T01:55:43.153Z,8.25
2023-05-03T01:58:12.716Z,8.73
2023-05-03T02:00:39.878Z,8.05
2023-05-03T02:03:07.080Z,9.00
2023-05-03T02:05:34.260Z,7.18
2023-05-03T02:08:01.262Z,10.45
2023-05-03T02:10:28.401Z,7.80
2023-05-03T02:12:56.014Z,8.77
2023-05-03T02:15:23.219Z,7.60
2023-05-03T02:17:50.976Z,9.82
2023-05-03T02:20:18.440Z,8.50
2023-05-03T02:22:45.372Z,9.55
2023-05-03T02:25:12.497Z,11.27
2023-05-03T02:27:39.800Z,9.82
2023-05-03T02:30:08.052Z,7.72
2023-05-03T02:32:41.489Z,6.57
2023-05-03T02:35:09.332Z,7.57
2023-05-03T02:37:36.490Z,9.95
2023-05-03T02:40:10.035Z,9.07
2023-05-03T02:42:37.913Z,9.77
2023-05-03T02:45:07.475Z,7.90
2023-05-03T02:47:34.681Z,9.52
2023-05-03T02:50:01.966Z,9.98
2023-05-03T02:52:32.641Z,11.32
2023-05-03T02:54:59.827Z,10.23
2023-05-03T02:57:26.977Z,10.48
2023-05-03T02:59:56.228Z,8.93
2023-05-03T03:02:23.707Z,10.15
2023-05-03T03:04:51.175Z,10.23
2023-05-03T03:07:18.322Z,7.13
2023-05-03T03:09:45.530Z,9.63
2023-05-03T03:12:12.503Z,11.50
2023-05-03T03:14:39.795Z,12.20
2023-05-03T03:17:10.176Z,8.68
2023-05-03T03:19:37.313Z,7.88
2023-05-03T03:22:04.378Z,12.68
2023-05-03T03:24:32.396Z,11.63
2023-05-03T03:26:59.464Z,9.18
2023-05-03T03:29:28.029Z,9.85
2023-05-03T03:31:55.639Z,18.40
2023-05-03T03:34:22.817Z,14.10
2023-05-03T03:36:49.844Z,11.00
2023-05-03T03:39:17.362Z,9.15
2023-05-03T03:41:46.124Z,8.65
2023-05-03T03:44:13.236Z,8.65
2023-05-03T03:46:41.053Z,9.43
2023-05-03T03:49:08.932Z,10.57
2023-05-03T03:51:36.636Z,7.53
2023-05-03T03:54:04.997Z,10.10
2023-05-03T03:56:36.080Z,8.57
2023-05-03T03:59:03.318Z,12.05
2023-05-03T04:01:30.322Z,8.82
2023-05-03T04:03:57.894Z,8.23
2023-05-03T04:06:25.517Z,11.43
2023-05-03T04:08:52.645Z,10.07
2023-05-03T04:11:21.545Z,8.38
2023-05-03T04:13:54.133Z,8.60
2023-05-03T04:16:21.782Z,8.82
2023-05-03T04:18:49.700Z,11.00
2023-05-03T04:21:17.030Z,10.52
2023-05-03T04:23:44.441Z,7.70
2023-05-03T04:26:23.866Z,10.93
2023-05-03T04:29:01.244Z,8.10
2023-05-03T04:31:28.698Z,15.40
2023-05-03T04:33:58.065Z,9.73
2023-05-03T04:36:27.045Z,11.25
2023-05-03T04:38:55.910Z,7.85
2023-05-03T04:41:24.786Z,10.70
2023-05-03T04:43:53.546Z,10.70
2023-05-03T04:46:21.566Z,13.52
2023-05-03T04:48:49.970Z,11.20
2023-05-03T04:51:18.115Z,13.98
2023-05-03T04:53:46.144Z,9.43
2023-05-03T04:56:17.448Z,13.43
2023-05-03T04:58:45.080Z,7.13
2023-05-03T05:01:14.599Z,8.50
2023-05-03T05:03:42.178Z,11.35
2023-05-03T05:06:17.349Z,11.60
2023-05-03T05:08:45.443Z,9.10
2023-05-03T05:11:14.953Z,8.55
2023-05-03T05:13:42.308Z,9.55
2023-05-03T05:16:09.625Z,10.80
2023-05-03T05:18:39.464Z,12.90
2023-05-03T05:21:09.324Z,8.65
2023-05-03T05:23:38.317Z,8.98
2023-05-03T05:26:05.401Z,10.88
2023-05-03T05:28:33.905Z,12.20
2023-05-03T05:31:01.680Z,6.97
2023-05-03T05:33:29.823Z,10.65
2023-05-03T05:35:58.275Z,6.75
2023-05-03T05:38:25.727Z,12.50
2023-05-03T05:40:56.657Z,10.60
2023-05-03T05:43:24.619Z,9.40
2023-05-03T05:45:51.705Z,11.05
2023-05-03T05:48:20.071Z,14.65
2023-05-03T05:50:48.965Z,12.05
2023-05-03T05:53:16.500Z,8.18
2023-05-03T05:55:53.549Z,9.43
2023-05-03T05:58:20.960Z,9.30
2023-05-03T06:00:52.044Z,10.45
2023-05-03T06:03:19.346Z,13.82
2023-05-03T06:05:49.435Z,11.70
2023-05-03T06:08:16.488Z,6.28
2023-05-03T06:10:43.609Z,8.35
2023-05-03T06:13:10.906Z,8.45
2023-05-03T06:15:38.013Z,9.50
2023-05-03T06:18:05.202Z,9.20
2023-05-03T06:20:32.388Z,10.32
2023-05-03T06:23:00.048Z,7.78
2023-05-03T06:25:27.202Z,10.65
2023-05-03T06:27:54.237Z,8.32
2023-05-03T06:30:25.939Z,11.60
2023-05-03T06:32:53.631Z,8.63
2023-05-03T06:35:22.010Z,11.10
2023-05-03T06:37:50.098Z,9.77
2023-05-03T06:40:17.788Z,10.95
2023-05-03T06:42:44.837Z,10.38
2023-05-03T06:45:15.570Z,7.97
2023-05-03T06:47:43.299Z,7.28
2023-05-03T06:50:10.987Z,9.48
2023-05-03T06:52:38.438Z,9.25
2023-05-03T06:55:06.144Z,6.68
2023-05-03T06:57:33.304Z,8.30
2023-05-03T07:00:00.458Z,9.85
2023-05-03T07:02:28.005Z,12.55
2023-05-03T07:04:55.102Z,6.80
2023-05-03T07:07:22.318Z,7.30
2023-05-03T07:09:49.644Z,9.60
2023-05-03T07:12:16.829Z,9.77
2023-05-03T07:14:44.017Z,7.55
2023-05-03T07:17:11.180Z,9.90
2023-05-03T07:19:38.836Z,6.18
2023-05-03T07:22:05.912Z,15.55
2023-05-03T07:24:32.898Z,11.80
2023-05-03T07:27:00.016Z,8.50
2023-05-03T07:29:27.663Z,8.45
2023-05-03T07:31:55.060Z,9.90
2023-05-03T07:34:22.210Z,8.35
2023-05-03T07:36:49.358Z,11.15
2023-05-03T07:39:17.543Z,11.50
2023-05-03T07:41:45.338Z,15.55
2023-05-03T07:44:12.342Z,17.13
2023-05-03T07:46:39.389Z,12.40
2023-05-03T07:49:06.852Z,10.38
2023-05-03T07:51:38.430Z,8.40
2023-05-03T07:54:05.732Z,15.35
2023-05-03T07:56:32.774Z,9.45
2023-05-03T07:59:09.545Z,11.90
2023-05-03T08:01:37.879Z,10.25
2023-05-03T08:04:05.492Z,14.95
2023-05-03T08:06:35.748Z,16.45
2023-05-03T08:09:04.702Z,12.90
2023-05-03T08:11:32.317Z,17.00
2023-05-03T08:13:59.856Z,12.25
2023-05-03T08:16:27.311Z,16.17
2023-05-03T08:18:54.637Z,12.65
2023-05-03T08:21:24.698Z,11.50
2023-05-03T08:23:52.047Z,16.50
2023-05-03T08:26:19.488Z,13.30
2023-05-03T08:28:46.729Z,15.27
2023-05-03T08:31:14.186Z,10.98
2023-05-03T08:33:41.395Z,11.38
2023-05-03T08:36:08.598Z,15.75
2023-05-03T08:38:36.816Z,15.48
2023-05-03T08:41:30.224Z,11.73
2023-05-03T08:44:00.240Z,14.80
2023-05-03T08:46:28.869Z,16.98
2023-05-03T08:48:56.539Z,16.23
2023-05-03T08:51:24.970Z,17.00
2023-05-03T08:53:52.118Z,16.45
2023-05-03T08:56:43.296Z,15.38
2023-05-03T08:59:14.097Z,17.77
2023-05-03T09:01:42.094Z,13.13
2023-05-03T09:04:11.137Z,17.88
2023-05-03T09:06:39.316Z,13.55
2023-05-03T09:09:08.760Z,13.73
2023-05-03T09:11:38.783Z,14.30
2023-05-03T09:14:14.541Z,14.23
2023-05-03T09:16:44.728Z,12.18
2023-05-03T09:19:13.290Z,13.50
2023-05-03T09:21:42.918Z,17.35
2023-05-03T09:24:19.120Z,12.95
2023-05-03T09:26:47.617Z,16.00
2023-05-03T09:29:31.334Z,14.40
2023-05-03T09:32:05.682Z,14.40
2023-05-03T09:34:34.108Z,18.93
2023-05-03T09:37:01.475Z,13.80
2023-05-03T09:39:28.714Z,18.20
2023-05-03T09:41:56.393Z,13.52
2023-05-03T09:44:51.335Z,15.82
2023-05-03T09:47:18.888Z,17.83
2023-05-03T09:49:46.389Z,12.73
2023-05-03T09:52:13.604Z,19.92
2023-05-03T09:54:41.157Z,17.67
2023-05-03T09:57:09.116Z,18.25
2023-05-03T09:59:38.883Z,16.10
2023-05-03T10:02:08.107Z,15.07
2023-05-03T10:04:48.108Z,20.08
2023-05-03T10:07:18.476Z,17.80
2023-05-03T10:09:48.181Z,15.43
2023-05-03T10:12:18.664Z,13.77
2023-05-03T10:14:48.331Z,13.05
2023-05-03T10:17:43.367Z,14.40
2023-05-03T10:20:16.936Z,18.00
2023-05-03T10:23:06.190Z,13.35
2023-05-03T10:25:37.996Z,16.05
2023-05-03T10:28:06.245Z,15.85
2023-05-03T10:30:40.494Z,15.00
2023-05-03T10:33:13.835Z,18.30
2023-05-03T10:35:43.082Z,14.57
2023-05-03T10:38:15.510Z,18.10
2023-05-03T10:40:44.490Z,18.00
2023-05-03T10:43:29.968Z,15.10
2023-05-03T10:46:01.008Z,15.52
2023-05-03T10:48:29.509Z,12.20
2023-05-03T10:50:57.827Z,13.70
2023-05-03T10:53:34.173Z,13.40
2023-05-03T10:56:09.554Z,16.92
2023-05-03T10:58:43.854Z,16.00
2023-05-03T11:01:13.521Z,14.35
2023-05-03T11:03:50.260Z,18.25
2023-05-03T11:06:36.605Z,14.45
2023-05-03T11:09:06.936Z,14.10
2023-05-03T11:11:35.964Z,16.17
2023-05-03T11:14:04.090Z,16.48
2023-05-03T11:16:31.767Z,17.55
2023-05-03T11:19:00.405Z,14.60
2023-05-03T11:21:27.693Z,11.55
2023-05-03T11:23:54.821Z,13.70
2023-05-03T11:26:26.453Z,13.70
2023-05-03T11:28:54.521Z,10.57
2023-05-03T11:31:22.986Z,14.35
2023-05-03T11:33:51.327Z,18.30
2023-05-03T11:36:18.673Z,11.32
2023-05-03T11:38:46.044Z,16.95
2023-05-03T11:41:19.258Z,13.93
2023-05-03T11:44:00.470Z,13.82
2023-05-03T11:46:35.171Z,16.67
2023-05-03T11:49:03.891Z,16.23
2023-05-03T11:51:31.558Z,14.25
2023-05-03T11:54:13.036Z,14.50
2023-05-03T11:56:51.342Z,16.30
2023-05-03T11:59:20.253Z,12.40
2023-05-03T12:01:49.762Z,15.90
2023-05-03T12:04:18.142Z,14.02
2023-05-03T12:06:53.027Z,15.10
2023-05-03T12:09:25.991Z,15.05
2023-05-03T12:11:55.354Z,13.35
2023-05-03T12:14:23.336Z,14.32
2023-05-03T12:16:53.128Z,19.77
2023-05-03T12:19:31.065Z,15.10
2023-05-03T12:24:33.440Z,14.07
2023-05-03T12:27:02.930Z,11.55
2023-05-03T12:29:34.701Z,12.20
2023-05-03T12:32:03.691Z,17.17
2023-05-03T12:34:35.810Z,11.18
2023-05-03T12:37:05.768Z,15.88
2023-05-03T12:39:34.466Z,14.15
2023-05-03T12:42:07.978Z,15.15
2023-05-03T12:44:35.681Z,14.13
2023-05-03T12:47:04.093Z,14.88
2023-05-03T12:49:32.264Z,14.25
2023-05-03T12:52:33.073Z,14.65
2023-05-03T12:55:03.103Z,12.55
2023-05-03T12:57:33.895Z,14.93
2023-05-03T13:00:14.485Z,13.75
2023-05-03T13:03:20.790Z,11.13
2023-05-03T13:10:30.011Z,12.30
2023-05-03T13:12:57.357Z,10.88
2023-05-03T13:15:25.433Z,11.00
2023-05-03T13:17:52.614Z,12.50
2023-05-03T13:20:20.362Z,14.27
2023-05-03T13:22:49.275Z,13.30
2023-05-03T13:25:16.794Z,17.92
2023-05-03T13:27:44.212Z,12.65
2023-05-03T13:30:11.808Z,12.43
2023-05-03T13:32:38.823Z,16.65
2023-05-03T13:35:06.814Z,13.05
2023-05-03T13:37:34.135Z,13.95
2023-05-03T13:40:01.665Z,11.93
2023-05-03T13:42:28.891Z,13.55
2023-05-03T13:44:56.228Z,13.68
2023-05-03T13:47:23.298Z,13.05
2023-05-03T13:49:50.573Z,10.18
2023-05-03T13:52:17.541Z,16.70
2023-05-03T13:54:44.596Z,14.88
2023-05-03T13:57:12.073Z,13.98
2023-05-03T13:59:39.265Z,13.25
2023-05-03T14:02:06.607Z,13.95
2023-05-03T14:04:34.092Z,14.38
2023-05-03T14:07:03.478Z,13.95
2023-05-03T14:09:31.108Z,13.02
2023-05-03T14:11:58.145Z,14.32
2023-05-03T14:14:27.612Z,18.50
2023-05-03T14:16:54.760Z,15.30
2023-05-03T14:19:22.045Z,15.15
2023-05-03T14:21:51.419Z,16.70
2023-05-03T14:24:18.922Z,19.67
2023-05-03T14:26:46.263Z,18.85
2023-05-03T14:29:13.201Z,20.00
2023-05-03T14:31:40.554Z,22.77
2023-05-03T14:34:08.192Z,17.75
2023-05-03T14:36:38.531Z,20.10
2023-05-03T14:39:06.963Z,20.90
2023-05-03T14:41:34.552Z,22.75
2023-05-03T14:44:02.338Z,16.55
2023-05-03T14:46:29.808Z,19.83
2023-05-03T14:48:57.344Z,19.58
2023-05-03T14:51:24.417Z,22.95
2023-05-03T14:53:51.463Z,17.95
2023-05-03T14:56:18.567Z,14.15
2023-05-03T14:58:45.685Z,15.98
2023-05-03T15:01:22.053Z,17.30
2023-05-03T15:03:49.798Z,14.77
2023-05-03T15:06:24.446Z,15.23
2023-05-03T15:08:52.439Z,15.90
2023-05-03T15:11:19.357Z,19.33
2023-05-03T15:13:47.060Z,19.83
2023-05-03T15:16:14.303Z,21.23
2023-05-03T15:18:43.561Z,20.45
2023-05-03T15:21:12.815Z,19.45
2023-05-03T15:23:39.755Z,19.65
2023-05-03T15:26:07.109Z,22.98
2023-05-03T15:28:34.181Z,16.70
2023-05-03T15:31:01.893Z,19.30
2023-05-03T15:33:29.040Z,15.23
2023-05-03T15:35:56.481Z,16.45
2023-05-03T15:38:23.646Z,21.13
2023-05-03T15:40:50.711Z,21.67
2023-05-03T15:43:18.021Z,20.30
2023-05-03T15:45:45.073Z,17.52
2023-05-03T15:48:12.127Z,18.55
2023-05-03T15:50:39.179Z,21.17
2023-05-03T15:53:06.408Z,19.30
2023-05-03T15:55:33.566Z,26.17
2023-05-03T15:58:00.700Z,26.00
2023-05-03T16:00:27.883Z,24.50
2023-05-03T16:02:55.168Z,21.48
2023-05-03T16:05:23.124Z,19.45
2023-05-03T16:07:51.002Z,22.67
2023-05-03T16:10:18.165Z,23.70
2023-05-03T16:12:45.237Z,18.08
2023-05-03T16:15:12.658Z,27.35
2023-05-03T16:17:39.968Z,23.58
2023-05-03T16:20:16.340Z,24.75
2023-05-03T16:22:43.735Z,31.20
2023-05-03T16:25:11.292Z,22.25
2023-05-03T16:27:41.608Z,23.35
2023-05-03T16:30:09.643Z,34.45
2023-05-03T16:32:37.006Z,19.88
2023-05-03T16:35:04.677Z,26.75
2023-05-03T16:37:33.091Z,24.38
2023-05-03T16:40:00.677Z,24.25
2023-05-03T16:42:28.183Z,22.02
2023-05-03T16:44:55.318Z,21.17
2023-05-03T16:47:22.487Z,22.25
2023-05-03T16:49:49.550Z,24.83
2023-05-03T16:52:16.560Z,16.13
2023-05-03T16:54:43.827Z,20.05
2023-05-03T16:57:10.973Z,24.23
2023-05-03T16:59:38.119Z,22.73
2023-05-03T17:02:05.139Z,19.70
2023-05-03T17:04:32.292Z,20.38
2023-05-03T17:06:59.381Z,22.95
2023-05-03T17:09:26.498Z,23.17
2023-05-03T17:11:53.618Z,26.98
2023-05-03T17:14:20.953Z,21.33
2023-05-03T17:16:49.156Z,24.95
2023-05-03T17:19:16.378Z,18.42
2023-05-03T17:21:43.423Z,21.17
2023-05-03T17:24:11.905Z,19.17
2023-05-03T17:26:39.975Z,16.90
2023-05-03T17:29:07.863Z,24.17
2023-05-03T17:31:34.762Z,17.00
2023-05-03T17:34:01.934Z,19.48
2023-05-03T17:36:29.486Z,18.80
2023-05-03T17:38:56.814Z,21.55
2023-05-03T17:41:23.832Z,17.77
2023-05-03T17:43:51.672Z,26.70
2023-05-03T17:46:20.385Z,21.48
2023-05-03T17:48:48.695Z,20.45
2023-05-03T17:51:15.786Z,29.13
2023-05-03T17:53:43.245Z,25.85
2023-05-03T17:56:19.674Z,21.73
2023-05-03T17:58:47.266Z,28.73
2023-05-03T18:01:15.742Z,21.05
2023-05-03T18:03:43.394Z,24.00
2023-05-03T18:06:13.282Z,23.45
2023-05-03T18:08:41.536Z,22.75
2023-05-03T18:11:09.409Z,17.45
2023-05-03T18:13:36.752Z,25.40
2023-05-03T18:16:07.964Z,13.65
2023-05-03T18:18:35.263Z,16.73
2023-05-03T18:21:04.657Z,16.58
2023-05-03T18:23:32.845Z,16.90
2023-05-03T18:26:00.415Z,15.27
2023-05-03T18:28:27.725Z,13.32
2023-05-03T18:30:56.037Z,17.67
2023-05-03T18:33:23.954Z,17.75
2023-05-03T18:35:52.473Z,16.02
2023-05-03T18:38:21.582Z,14.30
2023-05-03T18:40:49.530Z,17.15
2023-05-03T18:43:16.931Z,14.88
2023-05-03T18:45:44.511Z,20.17
2023-05-03T18:48:12.035Z,14.43
2023-05-03T18:50:39.456Z,14.18
2023-05-03T18:53:07.037Z,16.17
2023-05-03T18:55:34.235Z,15.38
2023-05-03T18:58:01.716Z,16.50
2023-05-03T19:00:28.747Z,16.23
2023-05-03T19:02:55.913Z,17.25
2023-05-03T19:05:23.131Z,16.58
2023-05-03T19:07:50.268Z,12.20
2023-05-03T19:10:19.921Z,12.88
2023-05-03T19:12:47.109Z,10.18
2023-05-03T19:15:14.079Z,12.02
2023-05-03T19:17:42.157Z,13.98
2023-05-03T19:20:12.770Z,12.60
2023-05-03T19:22:39.975Z,17.45
2023-05-03T19:25:07.587Z,18.23
2023-05-03T19:27:34.706Z,12.90
2023-05-03T19:30:01.991Z,19.27
2023-05-03T19:32:29.334Z,12.07
2023-05-03T19:34:56.676Z,13.30
2023-05-03T19:37:23.826Z,12.10
2023-05-03T19:39:50.949Z,12.10
2023-05-03T19:42:18.084Z,16.42
2023-05-03T19:44:45.047Z,10.55
2023-05-03T19:47:12.188Z,13.35
2023-05-03T19:49:39.279Z,12.60
2023-05-03T19:52:06.460Z,10.88
2023-05-03T19:54:33.532Z,22.35
2023-05-03T19:57:07.399Z,15.60
2023-05-03T19:59:35.459Z,11.80
2023-05-03T20:02:02.381Z,14.55
2023-05-03T20:04:29.654Z,14.80
2023-05-03T20:06:57.517Z,9.63
2023-05-03T20:09:24.832Z,15.45
2023-05-03T20:11:56.776Z,12.00
2023-05-03T20:14:23.735Z,11.20
2023-05-03T20:16:51.107Z,11.02
2023-05-03T20:19:18.615Z,10.50
2023-05-03T20:21:45.676Z,15.48
2023-05-03T20:24:12.844Z,13.95
2023-05-03T20:26:39.980Z,15.80
2023-05-03T20:29:07.190Z,12.65
2023-05-03T20:31:34.420Z,16.25
2023-05-03T20:34:01.636Z,13.23
2023-05-03T20:36:28.751Z,15.50
2023-05-03T20:38:56.469Z,11.38
2023-05-03T20:41:23.816Z,9.85
2023-05-03T20:43:55.138Z,16.98
2023-05-03T20:46:22.446Z,15.13
2023-05-03T20:48:49.885Z,13.02
2023-05-03T20:51:17.130Z,14.68
2023-05-03T20:53:44.310Z,11.27
2023-05-03T20:56:11.469Z,14.48
2023-05-03T20:58:38.453Z,12.65
2023-05-03T21:01:07.023Z,15.52
2023-05-03T21:03:34.848Z,16.40
2023-05-03T21:06:02.247Z,11.57
2023-05-03T21:08:29.433Z,14.48
2023-05-03T21:10:56.680Z,9.40
2023-05-03T21:13:23.987Z,11.55
2023-05-03T21:15:51.061Z,16.30
2023-05-03T21:18:19.359Z,10.85
2023-05-03T21:20:46.534Z,13.45
2023-05-03T21:23:13.430Z,15.25
2023-05-03T21:25:40.508Z,11.48
2023-05-03T21:28:07.553Z,11.73
2023-05-03T21:30:34.901Z,18.73
2023-05-03T21:33:02.037Z,14.35
2023-05-03T21:35:29.133Z,11.50
2023-05-03T21:37:56.522Z,13.88
2023-05-03T21:40:23.870Z,12.50
2023-05-03T21:42:54.295Z,12.43
2023-05-03T21:45:21.512Z,11.48
2023-05-03T21:47:48.857Z,12.52
2023-05-03T21:50:16.185Z,15.40
2023-05-03T21:52:43.190Z,12.32
2023-05-03T21:55:10.395Z,14.98
2023-05-03T21:57:38.055Z,11.45
2023-05-03T22:00:06.060Z,13.95
2023-05-03T22:02:35.763Z,12.57
2023-05-03T22:05:03.251Z,12.93
2023-05-03T22:07:30.225Z,11.07
2023-05-03T22:09:57.290Z,11.18
2023-05-03T22:12:25.138Z,10.65
2023-05-03T22:14:53.045Z,19.30
2023-05-03T22:17:20.578Z,14.95
2023-05-03T22:19:47.738Z,8.90
2023-05-03T22:22:14.694Z,11.18
2023-05-03T22:24:41.737Z,10.32
2023-05-03T22:27:08.777Z,13.43
2023-05-03T22:29:36.399Z,14.45
2023-05-03T22:32:03.482Z,11.77
2023-05-03T22:34:30.902Z,11.38
2023-05-03T22:36:57.887Z,11.27
2023-05-03T22:39:24.996Z,12.98
2023-05-03T22:41:52.053Z,10.25
2023-05-03T22:44:19.078Z,14.45
2023-05-03T22:46:46.407Z,8.25
2023-05-03T22:49:13.803Z,14.40
2023-05-03T22:51:41.783Z,12.80
2023-05-03T22:54:08.920Z,14.32
2023-05-03T22:56:36.147Z,15.07
2023-05-03T22:59:03.293Z,16.55
2023-05-03T23:01:31.136Z,15.05
2023-05-03T23:03:58.640Z,14.30
2023-05-03T23:06:25.949Z,14.13
2023-05-03T23:08:53.024Z,15.02
2023-05-03T23:11:21.122Z,11.77
2023-05-03T23:13:48.423Z,21.95
2023-05-03T23:16:15.538Z,13.88
2023-05-03T23:18:42.999Z,15.20
2023-05-03T23:21:10.206Z,13.77
2023-05-03T23:23:37.416Z,14.63
2023-05-03T23:26:04.528Z,11.38
2023-05-03T23:28:32.901Z,15.50
2023-05-03T23:31:00.560Z,16.05
2023-05-03T23:33:28.823Z,15.55
2023-05-03T23:35:55.965Z,14.90
2023-05-03T23:38:23.246Z,13.85
2023-05-03T23:40:50.284Z,18.52
2023-05-03T23:43:17.293Z,14.43
2023-05-03T23:45:44.416Z,13.32
2023-05-03T23:48:11.962Z,14.70
2023-05-03T23:50:38.977Z,15.95
2023-05-03T23:53:06.725Z,11.88
2023-05-03T23:55:33.704Z,15.85
2023-05-03T23:58:01.032Z,16.13
